หน้าหลัก
METAR-TAF:

METAR-TAF

ท่าอากาศยาน :

Retalhuleu, กัวเตมาลา

ละติจูด: 14-32N, ลองจิจูด: 091-40W, ความสูง: 239 ม.

การสังเกตสภาพอากาศปัจจุบัน

รายงานได้ทำขึ้นเมื่อ 10 ชั่วโมงและ 2 นาทีที่แล้ว ณ เวลา 00:00 UTC
ลม 8 นอตจากตะวันออก
อุณหภูมิ 25°C
ความชื้น 94%
ความกดอากาศ 1006 hPa
ทัศนวิสัย 10 กม. หรือมากกว่า
มีเมฆเป็นส่วนมากเว้นเป็นระยะที่ความสูง 1400 ฟุต
มีเมฆมาก มืดครึ้มที่ความสูง 8000 ฟุต

METAR: MGRT 170000Z 09008KT 9999 BKN014 OVC080 25/24 Q1006 A2971 PCPN SSW/SW/WSW VOLC STA MARIA Y SANTGO EN ACTV

เวลา: 04:02 (10:02 UTC)


TAF: หายไป

สังเกตการณ์สภาพอากาศและพยากรณ์อากาศของสนามบินมากกว่า 4000 แห่ง (รายงาน METAR และ TAF).

สถานีที่ดูได้จะแสดงไว้ด้วยจุดสีเหลืองและสีแดงบนแผนที่.

เลื่อนเมาส์ไปเหนือจุดเพื่อดูชื่อสถานี.

แล้วคลิกเพื่อดูสังเกตการณ์และการพยากรณ์สภาพอากาศ.

ในการเปลี่ยนแผนที่: คลิกที่ปุ่มสีเขียวที่มีกากบาทสีดำเพื่อซูมเข้า; ที่ปุ่มสีเขียวที่มีขีดเพื่อซูมออก; หรือที่ลูกศรสีเขียวเพื่อไปยังแผนที่ที่อยู่ติดกัน.


METAR-TAF: